Airfield :
LOGIN :

Register | Disclaimer

   EN    FR    IT 

 










Legend :    VFR   Marginal VFR   IFR   Intensive IFR   Very Intensive IFR
Visi :
Ceiling :
>= 8 km
>= 3000ft
5 to 8 km
1000 to 3000 ft
1500m to 5 km
500 to 1000 ft
800 to 1500m
200 to 500 ft
< 800m
< 200 ft
Symbols :   Thunderstorms  Fog  Heavy snow  Heavy precipitations  Wind > 20 kt
SIGMETs :     Misc.  Thunderstorms  Icing  Turbulence  Mountain Waves  Volcanic Ashes






- Airport Elevation : 1906 ft
- IATA code : INN


LOWI - Innsbruck

CURRENT METAR :
  • 221120Z VRB01KT CAVOK 03/M05 Q1032 NOSIG

EXPIRED METARs :
  • 221050Z VRB02KT CAVOK 01/M04 Q1033 NOSIG
  • 221020Z VRB01KT CAVOK 02/M04 Q1033 NOSIG
  • 220950Z VRB01KT CAVOK M00/M04 Q1033 NOSIG
  • 220920Z 19002KT CAVOK M02/M04 Q1034 NOSIG
  • 220850Z 06003KT CAVOK M04/M05 Q1034 NOSIG

TAF TAF LOWI
Valid from the 22 at 12:00 until the 23 at 12:00 UTC


221115Z 2212/2312 VRB02KT CAVOK TX03/2214Z TNM08/2306Z



MET'MAP, your aeronautical weather chart ! - Copyright ORBIFLY December 2007 - Disclaimer

ORBIFLY MET'MAP TEAM :

Programming & Development : Alexandra Zaïnal
Concept & original design : Baudouin d'Aumeries
Assistance for programming : Marc-Olivier Méhu
Technical & hardware support : Manuel Goepfert

Contact : metmap@orbifly.com




SOURCES & CREDITS :

   NOAA